CheckWX is a tool to help pilots better visualize weather data.  It is not intended as a substitute for an official pre-flight weather briefing.

08:51:32 UTC

KATT METAR
Austin City Airport
Austin, Texas, USA
Current

12 mins ago

KATT 190840Z AUTO VRB03KT 4SM BR BKN009 OVC015 26/23 A2979 RMK AO2 CIG 007V012 T02560233
Observed
May-19 @ 08:40 UTC
Wind
  • Variable at 3 KTS
Visibility
4 SM
Flight Rules
IFR
Conditions
Mist
Cloud Levels
  • Broken at 900' AGL
  • Overcast at 1,500' AGL
Temperature
26°C / 79°F
Dewpoint
23°C / 73°F
Humidity
84%
Altimeter
29.79" Hg
Pressure
1008.82 hPa
Previous

43 mins ago

KATT 190809Z AUTO VRB03KT 5SM BR BKN010 OVC014 26/23 A2978 RMK AO2 CIG 008V012 T02560233
Observed
May-19 @ 08:09 UTC
Wind
  • Variable at 3 KTS
Visibility
5 SM
Flight Rules
MVFR
Conditions
Mist
Cloud Levels
  • Broken at 1,000' AGL
  • Overcast at 1,400' AGL
Temperature
26°C / 79°F
Dewpoint
23°C / 73°F
Humidity
84%
Altimeter
29.78" Hg
Pressure
1008.42 hPa
Previous

1 hour ago

KATT 190751Z AUTO VRB03KT 5SM HZ BKN008 OVC014 26/23 A2978 RMK AO2 CIG 007V012 SLP070 T02560228
Observed
May-19 @ 07:51 UTC
Wind
  • Variable at 3 KTS
Visibility
5 SM
Flight Rules
IFR
Conditions
Haze
Cloud Levels
  • Broken at 800' AGL
  • Overcast at 1,400' AGL
Temperature
26°C / 79°F
Dewpoint
23°C / 73°F
Humidity
84%
Altimeter
29.78" Hg
Pressure
1008.42 hPa